Time;durP1;ratioP1;P1;durP2;ratioP2;P2;SDS_P1;SDS_P2;PMS_P1;PMS_P2;Temp;Humidity;BMP_temperature;BMP_pressure;BME280_temperature;BME280_humidity;BME280_pressure;Samples;Min_cycle;Max_cycle;Signal;HPM_P1;HPM_P2
2022/12/19 00:01:15;;;;;;;;;;;;;;;;;;5147926;27;19919;-60
2022/12/19 00:03:41;;;;;;;;;;;;;;;;;;5126823;28;20342;-59
2022/12/19 00:06:08;;;;;;;;;;;;;;;;;;5127948;28;19923;-59
2022/12/19 00:08:34;;;;;;;;;;;;;;;;;;5126838;28;19926;-59
2022/12/19 00:11:00;;;;;;;;;;;;;;;;;;5133742;27;19923;-59
2022/12/19 00:13:26;;;;;;;;;;;;;;;;;;5129020;27;20173;-59
2022/12/19 00:15:52;;;;;;;;;;;;;;;;;;5136886;27;19919;-59
2022/12/19 00:18:18;;;;;;;;;;;;;;;;;;5130878;27;20045;-60
2022/12/19 00:20:43;;;;;;;;;;;;;;;;;;5138097;27;19923;-60
2022/12/19 00:23:09;;;;;;;;;;;;;;;;;;5133889;27;20369;-60
2022/12/19 00:25:35;;;;;;;;;;;;;;;;;;5137163;27;19919;-59
2022/12/19 00:28:04;;;;;;;;;;;;;;;;;;5139949;27;19954;-59
2022/12/19 00:30:30;;;;;;;;;;;;;;;;;;5139846;27;19968;-59
2022/12/19 00:32:56;;;;;;;;;;;;;;;;;;5132658;27;19999;-60
2022/12/19 00:35:22;;;;;;;;;;;;;;;;;;5133457;27;20270;-59
2022/12/19 00:37:48;;;;;;;;;;;;;;;;;;5134775;27;19935;-60
2022/12/19 00:40:14;;;;;;;;;;;;;;;;;;5135209;27;20036;-59
2022/12/19 00:42:40;;;;;;;;;;;;;;;;;;5135076;27;20288;-59
2022/12/19 00:45:05;;;;;;;;;;;;;;;;;;5133451;27;19926;-59
2022/12/19 00:47:31;;;;;;;;;;;;;;;;;;5131658;27;19933;-59
2022/12/19 00:49:57;;;;;;;;;;;;;;;;;;5142599;27;20278;-59
2022/12/19 00:52:23;;;;;;;;;;;;;;;;;;5141494;27;19923;-59
2022/12/19 00:54:49;;;;;;;;;;;;;;;;;;5138867;27;20115;-59
2022/12/19 00:57:15;;;;;;;;;;;;;;;;;;5139249;27;19926;-60
2022/12/19 00:59:41;;;;;;;;;;;;;;;;;;5136874;27;19919;-60
2022/12/19 01:02:07;;;;;;;;;;;;;;;;;;5140210;27;20436;-60
2022/12/19 01:04:33;;;;;;;;;;;;;;;;;;5136779;27;19923;-60
2022/12/19 01:06:59;;;;;;;31.95;19.30;;;;;;;;;;5133772;27;20131;-60
2022/12/19 01:09:25;;;;;;;32.00;20.05;;;;;;;;;;5134899;27;20409;-60
2022/12/19 01:14:35;;;;;;;31.92;18.67;;;;;;;;;;5141137;27;20043;-60
2022/12/19 01:17:01;;;;;;;28.85;17.95;;;;;;;;;;5142087;27;20070;-60
2022/12/19 01:19:27;;;;;;;32.95;19.65;;;;;;;;;;5139863;27;20071;-60
2022/12/19 01:21:53;;;;;;;29.48;18.05;;;;;;;;;;5139312;27;20089;-60
2022/12/19 01:24:19;;;;;;;32.30;18.20;;;;;;;;;;5135128;27;20043;-60
2022/12/19 01:26:45;;;;;;;30.85;19.25;;;;;;;;;;5136378;27;20481;-60
2022/12/19 01:29:11;;;;;;;33.22;19.15;;;;;;;;;;5137783;27;20046;-61
2022/12/19 01:31:37;;;;;;;31.55;19.48;;;;;;;;;;5140010;27;20039;-60
2022/12/19 01:34:03;;;;;;;31.75;18.23;;;;;;;;;;5141839;27;20035;-60
2022/12/19 01:36:29;;;;;;;30.42;18.27;;;;;;;;;;5134896;27;20125;-61
2022/12/19 01:38:56;;;;;;;29.63;18.27;;;;;;;;;;5134531;27;20035;-60
2022/12/19 01:41:22;;;;;;;;;;;;;;;;;;5134675;27;20055;-60
2022/12/19 01:43:48;;;;;;;;;;;;;;;;;;5135706;27;19919;-60
2022/12/19 01:46:14;;;;;;;;;;;;;;;;;;5134138;27;20267;-60
2022/12/19 01:48:40;;;;;;;;;;;;;;;;;;5136613;27;19923;-60
2022/12/19 01:51:06;;;;;;;;;;;;;;;;;;5133394;27;19919;-60
2022/12/19 01:53:32;;;;;;;;;;;;;;;;;;5134328;27;19926;-60
2022/12/19 01:55:57;;;;;;;;;;;;;;;;;;5140983;27;19929;-61
2022/12/19 01:58:23;;;;;;;;;;;;;;;;;;5140118;27;19923;-61
2022/12/19 02:00:49;;;;;;;;;;;;;;;;;;5139415;27;19984;-61
2022/12/19 02:03:15;;;;;;;;;;;;;;;;;;5140729;27;19919;-60
2022/12/19 02:05:41;;;;;;;;;;;;;;;;;;5139974;27;20297;-60
2022/12/19 02:08:07;;;;;;;;;;;;;;;;;;5142200;27;19923;-60
2022/12/19 02:10:33;;;;;;;;;;;;;;;;;;5138290;27;20608;-60
2022/12/19 02:12:59;;;;;;;;;;;;;;;;;;5141273;27;20113;-60
2022/12/19 02:15:25;;;;;;;;;;;;;;;;;;5139842;27;20021;-60
2022/12/19 02:17:51;;;;;;;;;;;;;;;;;;5139178;27;19920;-60
2022/12/19 02:20:17;;;;;;;;;;;;;;;;;;5140195;27;19923;-61
2022/12/19 02:22:42;;;;;;;;;;;;;;;;;;5139804;27;19927;-60
2022/12/19 02:25:08;;;;;;;;;;;;;;;;;;5140668;27;19973;-60
2022/12/19 02:27:34;;;;;;;;;;;;;;;;;;5120958;27;19968;-61
2022/12/19 02:30:00;;;;;;;;;;;;;;;;;;5140837;27;19919;-60
2022/12/19 02:32:26;;;;;;;;;;;;;;;;;;5138663;27;19926;-60
2022/12/19 02:34:52;;;;;;;;;;;;;;;;;;5139999;27;19923;-61
2022/12/19 02:37:19;;;;;;;;;;;;;;;;;;5139639;27;20373;-61
2022/12/19 02:39:45;;;;;;;;;;;;;;;;;;5138658;27;19972;-61
2022/12/19 02:42:13;;;;;;;33.10;20.05;;;;;;;;;;5139981;27;19919;-60
2022/12/19 02:44:42;;;;;;;31.98;18.63;;;;;;;;;;5138523;27;20084;-60
2022/12/19 02:47:08;;;;;;;32.58;19.70;;;;;;;;;;5139854;27;20500;-61
2022/12/19 02:49:35;;;;;;;31.77;19.30;;;;;;;;;;5134975;27;20507;-60
2022/12/19 02:52:11;;;;;;;31.73;19.70;;;;;;;;;;5132758;27;20332;-61
2022/12/19 02:54:38;;;;;;;37.67;19.13;;;;;;;;;;5138659;27;20043;-60
2022/12/19 02:57:15;;;;;;;36.15;20.63;;;;;;;;;;5133789;27;20395;-60
2022/12/19 02:59:50;;;;;;;32.38;20.20;;;;;;;;;;5134298;27;20363;-60
2022/12/19 03:02:26;;;;;;;34.72;19.48;;;;;;;;;;5132986;27;20474;-61
2022/12/19 03:05:04;;;;;;;30.10;19.50;;;;;;;;;;5136498;27;20061;-63
2022/12/19 03:07:41;;;;;;;34.95;20.85;;;;;;;;;;5132147;27;20035;-60
2022/12/19 03:10:12;;;;;;;33.42;19.90;;;;;;;;;;5136850;27;20057;-61
2022/12/19 03:12:46;;;;;;;31.08;19.58;;;;;;;;;;5136306;27;20070;-60
2022/12/19 03:15:13;;;;;;;33.20;20.25;;;;;;;;;;5135580;27;20045;-60
2022/12/19 03:17:39;;;;;;;32.35;19.65;;;;;;;;;;5137467;27;20077;-60
2022/12/19 03:20:13;;;;;;;32.20;20.60;;;;;;;;;;5138288;27;20605;-61
2022/12/19 03:22:39;;;;;;;33.50;21.00;;;;;;;;;;5133821;27;20098;-60
2022/12/19 03:25:06;;;;;;;31.33;20.02;;;;;;;;;;5140319;27;20369;-60
2022/12/19 03:27:33;;;;;;;29.27;19.73;;;;;;;;;;5136606;27;20385;-60
2022/12/19 03:30:04;;;;;;;30.13;19.63;;;;;;;;;;5139245;27;20043;-60
2022/12/19 03:32:31;;;;;;;34.38;21.80;;;;;;;;;;5134635;27;20420;-60
2022/12/19 03:35:10;;;;;;;34.20;21.63;;;;;;;;;;5132515;27;20087;-61
2022/12/19 03:37:38;;;;;;;30.73;18.90;;;;;;;;;;5133584;27;20134;-61
2022/12/19 03:40:07;;;;;;;30.15;20.10;;;;;;;;;;5135668;27;20523;-60
2022/12/19 03:45:28;;;;;;;31.58;19.55;;;;;;;;;;5135896;27;20125;-61
2022/12/19 03:47:58;;;;;;;33.50;21.25;;;;;;;;;;5135877;27;20386;-60
2022/12/19 03:50:24;;;;;;;36.45;20.30;;;;;;;;;;5130971;27;20074;-61
2022/12/19 03:52:58;;;;;;;34.20;21.33;;;;;;;;;;5137642;27;20039;-60
2022/12/19 03:55:29;;;;;;;34.70;20.80;;;;;;;;;;5137883;27;20359;-60
2022/12/19 03:58:04;;;;;;;21.98;15.38;;;;;;;;;;5135640;27;20041;-60
2022/12/19 04:00:30;;;;;;;32.60;20.77;;;;;;;;;;5132429;27;20590;-61
2022/12/19 04:02:57;;;;;;;32.22;21.58;;;;;;;;;;5132386;27;20400;-61
2022/12/19 04:05:23;;;;;;;33.22;22.02;;;;;;;;;;5115529;27;20050;-61
2022/12/19 04:07:51;;;;;;;33.10;20.83;;;;;;;;;;5137166;27;20096;-61
2022/12/19 04:10:19;;;;;;;37.25;24.08;;;;;;;;;;5137264;27;20043;-60
2022/12/19 04:12:50;;;;;;;37.35;23.02;;;;;;;;;;5135683;27;20356;-60
2022/12/19 04:15:16;;;;;;;33.80;22.10;;;;;;;;;;5131653;27;20446;-61
2022/12/19 04:17:52;;;;;;;33.33;20.70;;;;;;;;;;5134302;27;20073;-61
2022/12/19 04:20:24;;;;;;;31.20;20.80;;;;;;;;;;5131465;27;20046;-61
2022/12/19 04:23:04;;;;;;;36.70;22.63;;;;;;;;;;5133926;27;20073;-60
2022/12/19 04:25:32;;;;;;;36.50;22.20;;;;;;;;;;5135667;27;20058;-61
2022/12/19 04:28:01;;;;;;;33.38;21.33;;;;;;;;;;5138840;27;20030;-60
2022/12/19 04:30:27;;;;;;;39.33;23.30;;;;;;;;;;5141199;27;20099;-61
2022/12/19 04:32:53;;;;;;;;;;;;;;;;;;5141474;27;20043;-60
2022/12/19 04:35:19;;;;;;;;;;;;;;;;;;5142369;27;19919;-61
2022/12/19 04:37:45;;;;;;;;;;;;;;;;;;5140840;27;20381;-60
2022/12/19 04:40:11;;;;;;;36.90;23.20;;;;;;;;;;5142639;27;19965;-60
2022/12/19 04:42:37;;;;;;;;;;;;;;;;;;5141669;27;19927;-61
2022/12/19 04:45:03;;;;;;;;;;;;;;;;;;5140688;27;19928;-60
2022/12/19 04:47:29;;;;;;;32.60;22.40;;;;;;;;;;5134532;27;20662;-61
2022/12/19 04:49:55;;;;;;;37.47;24.52;;;;;;;;;;5141088;27;20035;-61
2022/12/19 04:52:21;;;;;;;37.35;23.50;;;;;;;;;;5139271;27;20048;-60
2022/12/19 04:54:47;;;;;;;37.50;24.08;;;;;;;;;;5136360;27;20112;-61
2022/12/19 04:57:13;;;;;;;36.83;22.60;;;;;;;;;;5133412;27;20047;-61
2022/12/19 04:59:39;;;;;;;33.47;21.77;;;;;;;;;;5139015;27;20035;-60
2022/12/19 05:02:08;;;;;;;36.58;22.65;;;;;;;;;;5136209;27;20100;-60
2022/12/19 05:04:34;;;;;;;37.90;24.25;;;;;;;;;;5133580;27;20039;-61
2022/12/19 05:07:00;;;;;;;33.55;22.67;;;;;;;;;;5135443;27;20039;-61
2022/12/19 05:09:26;;;;;;;35.53;22.08;;;;;;;;;;5132216;27;20516;-60
2022/12/19 05:11:52;;;;;;;35.17;22.48;;;;;;;;;;5133630;27;20119;-60
2022/12/19 05:14:18;;;;;;;37.40;24.00;;;;;;;;;;5138960;27;20039;-60
2022/12/19 05:16:44;;;;;;;35.38;21.83;;;;;;;;;;5140754;27;20402;-61
2022/12/19 05:19:10;;;;;;;30.42;20.33;;;;;;;;;;5137312;27;20095;-61
2022/12/19 05:21:36;;;;;;;31.65;21.15;;;;;;;;;;5139989;27;20035;-61
2022/12/19 05:24:02;;;;;;;37.72;23.52;;;;;;;;;;5134786;27;20046;-60
2022/12/19 05:26:28;;;;;;;34.92;22.02;;;;;;;;;;5132126;27;20107;-60
2022/12/19 05:28:53;;;;;;;;;;;;;;;;;;5130955;27;20039;-60
2022/12/19 05:31:20;;;;;;;38.13;21.98;;;;;;;;;;5129918;27;19923;-60
2022/12/19 05:33:47;;;;;;;32.35;20.23;;;;;;;;;;5131593;27;20043;-60
2022/12/19 05:36:13;;;;;;;32.63;19.77;;;;;;;;;;5128219;27;20172;-60
2022/12/19 05:38:40;;;;;;;36.88;21.08;;;;;;;;;;5131259;27;20045;-60
2022/12/19 05:41:10;;;;;;;33.20;21.88;;;;;;;;;;5131032;27;20035;-60
2022/12/19 05:43:36;;;;;;;30.27;20.10;;;;;;;;;;5131772;27;20035;-60
2022/12/19 05:46:03;;;;;;;31.88;20.88;;;;;;;;;;5133752;27;20176;-60
2022/12/19 05:48:29;;;;;;;26.02;17.95;;;;;;;;;;5131573;27;20050;-60
2022/12/19 05:50:55;;;;;;;27.92;18.95;;;;;;;;;;5131002;27;20043;-60
2022/12/19 05:53:21;;;;;;;27.90;17.95;;;;;;;;;;5128207;27;20043;-60
2022/12/19 05:55:47;;;;;;;24.52;18.02;;;;;;;;;;5128570;27;20092;-61
2022/12/19 05:58:13;;;;;;;27.90;18.10;;;;;;;;;;5136896;27;20075;-60
2022/12/19 06:00:39;;;;;;;25.13;16.33;;;;;;;;;;5114540;27;20477;-60
2022/12/19 06:03:05;;;;;;;22.38;16.50;;;;;;;;;;5131186;27;20050;-60
2022/12/19 06:05:31;;;;;;;21.20;14.93;;;;;;;;;;5132092;27;20039;-60
2022/12/19 06:07:57;;;;;;;22.42;15.00;;;;;;;;;;5131184;27;20055;-60
2022/12/19 06:10:23;;;;;;;20.27;15.13;;;;;;;;;;5111276;27;20055;-61
2022/12/19 06:12:50;;;;;;;24.58;15.95;;;;;;;;;;5134120;27;20099;-60
2022/12/19 06:15:16;;;;;;;20.55;14.85;;;;;;;;;;5130902;27;20092;-60
2022/12/19 06:17:42;;;;;;;19.75;13.13;;;;;;;;;;5130317;27;20401;-60
2022/12/19 06:20:08;;;;;;;22.85;14.68;;;;;;;;;;5130310;27;20070;-60
2022/12/19 06:22:34;;;;;;;22.25;15.25;;;;;;;;;;5129373;27;20417;-60
2022/12/19 06:25:00;;;;;;;20.65;14.98;;;;;;;;;;5131296;27;20035;-60
2022/12/19 06:27:26;;;;;;;18.13;13.90;;;;;;;;;;5131106;27;20047;-60
2022/12/19 06:29:52;;;;;;;18.08;13.27;;;;;;;;;;5129389;27;20458;-60
2022/12/19 06:32:18;;;;;;;21.23;13.93;;;;;;;;;;5130336;27;20043;-60
2022/12/19 06:34:44;;;;;;;18.88;12.88;;;;;;;;;;5130279;27;20701;-60
2022/12/19 06:37:11;;;;;;;18.30;13.02;;;;;;;;;;5129959;27;20039;-61
2022/12/19 06:39:37;;;;;;;16.58;12.73;;;;;;;;;;5129238;27;20330;-61
2022/12/19 06:42:21;;;;;;;17.52;13.02;;;;;;;;;;5131508;27;20114;-60
2022/12/19 06:44:47;;;;;;;17.88;13.45;;;;;;;;;;5128685;27;20053;-61
2022/12/19 06:47:13;;;;;;;18.23;12.73;;;;;;;;;;5130775;27;20042;-61
2022/12/19 06:49:39;;;;;;;17.42;12.70;;;;;;;;;;5131446;27;20066;-60
2022/12/19 06:52:05;;;;;;;16.55;13.35;;;;;;;;;;5132423;27;20035;-60
2022/12/19 06:54:31;;;;;;;15.68;11.98;;;;;;;;;;5129764;27;20394;-60
2022/12/19 06:56:57;;;;;;;15.50;11.75;;;;;;;;;;5128720;27;20035;-60
2022/12/19 06:59:23;;;;;;;16.85;11.40;;;;;;;;;;5128592;27;20039;-60
2022/12/19 07:01:49;;;;;;;15.70;11.43;;;;;;;;;;5130326;27;20046;-60
2022/12/19 07:04:17;;;;;;;14.35;10.73;;;;;;;;;;5128731;27;20047;-59
2022/12/19 07:06:43;;;;;;;13.70;11.13;;;;;;;;;;5128005;27;20066;-60
2022/12/19 07:09:09;;;;;;;13.98;10.60;;;;;;;;;;5132075;27;20478;-60
2022/12/19 07:11:35;;;;;;;12.40;10.05;;;;;;;;;;5130937;27;20508;-60
2022/12/19 07:14:01;;;;;;;13.75;9.95;;;;;;;;;;5129307;27;20035;-60
2022/12/19 07:16:27;;;;;;;12.90;10.05;;;;;;;;;;5125656;27;20622;-60
2022/12/19 07:18:54;;;;;;;13.02;10.93;;;;;;;;;;5131043;27;20043;-60
2022/12/19 07:21:21;;;;;;;12.73;9.82;;;;;;;;;;5128604;27;20073;-60
2022/12/19 07:23:48;;;;;;;13.13;10.43;;;;;;;;;;5130343;27;20096;-60
2022/12/19 07:26:14;;;;;;;12.45;10.05;;;;;;;;;;5132851;27;20537;-60
2022/12/19 07:28:43;;;;;;;13.57;10.55;;;;;;;;;;5128332;27;20039;-61
2022/12/19 07:31:09;;;;;;;10.65;9.00;;;;;;;;;;5131394;27;20042;-60
2022/12/19 07:33:35;;;;;;;13.20;10.45;;;;;;;;;;5126893;27;20039;-60
2022/12/19 07:36:01;;;;;;;11.02;9.27;;;;;;;;;;5131684;27;20548;-60
2022/12/19 07:38:27;;;;;;;9.95;8.60;;;;;;;;;;5129498;27;20047;-60
2022/12/19 07:40:53;;;;;;;10.48;8.88;;;;;;;;;;5128713;27;20472;-60
2022/12/19 07:43:19;;;;;;;10.88;9.00;;;;;;;;;;5128584;27;20085;-61
2022/12/19 07:45:45;;;;;;;11.95;9.43;;;;;;;;;;5129827;27;20462;-60
2022/12/19 07:48:11;;;;;;;12.07;10.00;;;;;;;;;;5126400;27;20039;-60
2022/12/19 07:50:37;;;;;;;11.13;9.23;;;;;;;;;;5130699;27;20070;-60
2022/12/19 07:53:03;;;;;;;10.93;9.32;;;;;;;;;;5128999;27;20078;-60
2022/12/19 07:55:29;;;;;;;12.20;9.55;;;;;;;;;;5125820;27;20042;-60
2022/12/19 07:57:55;;;;;;;10.88;9.10;;;;;;;;;;5127494;27;20051;-60
2022/12/19 08:00:21;;;;;;;10.50;9.13;;;;;;;;;;5112048;27;20413;-60
2022/12/19 08:02:47;;;;;;;14.13;9.75;;;;;;;;;;5135173;27;20122;-60
2022/12/19 08:05:13;;;;;;;10.77;9.63;;;;;;;;;;5134773;27;20192;-60
2022/12/19 08:07:39;;;;;;;10.65;9.60;;;;;;;;;;5132550;27;20043;-60
2022/12/19 08:10:06;;;;;;;10.75;9.35;;;;;;;;;;5130347;27;20509;-60
2022/12/19 08:12:32;;;;;;;10.30;9.20;;;;;;;;;;5132986;27;20039;-61
2022/12/19 08:14:58;;;;;;;10.10;7.88;;;;;;;;;;5135080;27;20099;-61
2022/12/19 08:17:25;;;;;;;8.90;8.00;;;;;;;;;;5130184;27;20043;-61
2022/12/19 08:19:51;;;;;;;9.23;8.20;;;;;;;;;;5129274;27;20533;-60
2022/12/19 08:22:17;;;;;;;9.93;8.48;;;;;;;;;;5130418;27;20408;-61
2022/12/19 08:24:43;;;;;;;9.07;8.15;;;;;;;;;;5130342;27;20474;-60
2022/12/19 08:27:09;;;;;;;9.07;7.65;;;;;;;;;;5131583;27;20047;-61
2022/12/19 08:29:35;;;;;;;9.27;8.38;;;;;;;;;;5133281;27;20423;-61
2022/12/19 08:32:01;;;;;;;9.65;8.63;;;;;;;;;;5130696;27;20042;-60
2022/12/19 08:34:27;;;;;;;8.82;7.72;;;;;;;;;;5128558;27;21355;-60
2022/12/19 08:36:53;;;;;;;9.00;8.10;;;;;;;;;;5130384;27;20046;-61
2022/12/19 08:39:19;;;;;;;8.27;7.47;;;;;;;;;;5134550;27;20073;-60
2022/12/19 08:41:45;;;;;;;8.23;7.35;;;;;;;;;;5131205;27;20031;-61
2022/12/19 08:44:12;;;;;;;8.18;7.28;;;;;;;;;;5130939;27;20482;-60
2022/12/19 08:46:38;;;;;;;8.65;7.85;;;;;;;;;;5128844;27;20043;-60
2022/12/19 08:49:04;;;;;;;7.47;6.78;;;;;;;;;;5128819;27;20126;-60
2022/12/19 08:51:30;;;;;;;8.95;8.05;;;;;;;;;;5126712;27;20156;-60
2022/12/19 08:53:56;;;;;;;9.07;7.95;;;;;;;;;;5132250;27;20039;-61
2022/12/19 08:56:22;;;;;;;8.70;7.80;;;;;;;;;;5128514;27;20066;-57
2022/12/19 08:58:50;;;;;;;9.65;8.05;;;;;;;;;;5130093;27;20035;-58
2022/12/19 09:01:17;;;;;;;9.02;7.85;;;;;;;;;;5132285;27;20122;-67
2022/12/19 09:03:44;;;;;;;9.52;8.60;;;;;;;;;;5129984;27;20039;-60
2022/12/19 09:06:11;;;;;;;11.50;9.48;;;;;;;;;;5128685;27;20512;-63
2022/12/19 09:08:37;;;;;;;10.02;8.38;;;;;;;;;;5135879;27;20252;-62
2022/12/19 09:11:07;;;;;;;10.20;8.88;;;;;;;;;;5129702;27;20064;-63
2022/12/19 09:13:34;;;;;;;9.73;8.55;;;;;;;;;;5142863;27;20047;-62
2022/12/19 09:16:03;;;;;;;9.27;8.38;;;;;;;;;;5150240;27;20519;-62
2022/12/19 09:18:30;;;;;;;9.93;8.85;;;;;;;;;;5149841;27;20505;-62
2022/12/19 09:20:56;;;;;;;9.32;8.43;;;;;;;;;;5149619;27;20038;-62
2022/12/19 09:23:26;;;;;;;11.18;10.07;;;;;;;;;;5134137;27;20050;-62
2022/12/19 09:25:53;;;;;;;9.55;8.55;;;;;;;;;;5150025;27;20706;-62
2022/12/19 09:28:19;;;;;;;9.52;8.55;;;;;;;;;;5133883;27;20439;-62
2022/12/19 09:30:45;;;;;;;10.13;9.13;;;;;;;;;;5129440;27;20079;-62
2022/12/19 09:33:11;;;;;;;10.90;9.90;;;;;;;;;;5127362;27;20075;-61
2022/12/19 09:35:37;;;;;;;10.52;9.43;;;;;;;;;;5129004;27;20042;-62
2022/12/19 09:38:03;;;;;;;10.30;9.32;;;;;;;;;;5128730;27;20130;-62
2022/12/19 09:40:33;;;;;;;11.73;10.55;;;;;;;;;;5130941;27;20130;-62
2022/12/19 09:43:02;;;;;;;10.68;9.63;;;;;;;;;;5145737;27;20085;-61
2022/12/19 09:45:44;;;;;;;11.18;10.15;;;;;;;;;;5149584;27;20039;-61
2022/12/19 09:48:14;;;;;;;9.88;8.88;;;;;;;;;;5130578;27;20043;-62
2022/12/19 09:50:53;;;;;;;10.32;9.32;;;;;;;;;;5129423;27;20047;-62
2022/12/19 09:53:26;;;;;;;10.40;9.30;;;;;;;;;;5142909;27;20046;-62
2022/12/19 09:55:53;;;;;;;11.25;10.20;;;;;;;;;;5138430;27;20046;-62
2022/12/19 09:58:37;;;;;;;12.10;10.90;;;;;;;;;;5141051;27;20043;-62
2022/12/19 10:01:06;;;;;;;13.25;11.30;;;;;;;;;;5149411;27;20125;-62
2022/12/19 10:03:35;;;;;;;11.30;10.10;;;;;;;;;;5131256;27;20047;-62
2022/12/19 10:06:14;;;;;;;12.57;11.35;;;;;;;;;;5128563;27;20421;-62
2022/12/19 10:08:43;;;;;;;12.25;11.07;;;;;;;;;;5130172;27;20043;-62
2022/12/19 10:11:14;;;;;;;11.48;10.35;;;;;;;;;;5128422;27;20078;-62
2022/12/19 10:13:50;;;;;;;11.35;10.25;;;;;;;;;;5128373;27;20043;-62
2022/12/19 10:16:19;;;;;;;13.60;10.93;;;;;;;;;;5127591;27;20043;-62
2022/12/19 10:18:51;;;;;;;11.98;10.65;;;;;;;;;;5128394;27;20521;-62
2022/12/19 10:21:20;;;;;;;11.73;10.57;;;;;;;;;;5127668;27;20182;-62
2022/12/19 10:23:52;;;;;;;13.18;11.85;;;;;;;;;;5126923;27;20062;-62
2022/12/19 10:26:37;;;;;;;14.18;11.30;;;;;;;;;;5125973;27;20039;-61
2022/12/19 10:29:14;;;;;;;10.85;9.75;;;;;;;;;;5126220;27;20490;-62
2022/12/19 10:31:47;;;;;;;14.18;10.63;;;;;;;;;;5131531;27;20122;-60
2022/12/19 10:34:19;;;;;;;11.55;10.35;;;;;;;;;;5129271;27;20065;-60
2022/12/19 10:36:49;;;;;;;13.77;11.45;;;;;;;;;;5137171;27;20111;-61
2022/12/19 10:39:31;;;;;;;11.65;10.55;;;;;;;;;;5141588;27;20456;-61
2022/12/19 10:42:02;;;;;;;12.00;10.90;;;;;;;;;;5134663;27;20406;-61
2022/12/19 10:44:30;;;;;;;12.00;10.80;;;;;;;;;;5126773;27;20076;-61
2022/12/19 10:46:56;;;;;;;11.60;10.05;;;;;;;;;;5130159;27;20039;-61
2022/12/19 10:49:24;;;;;;;11.15;10.05;;;;;;;;;;5134894;27;20047;-61
2022/12/19 10:51:57;;;;;;;11.25;10.10;;;;;;;;;;5126833;27;20043;-61
2022/12/19 10:54:24;;;;;;;11.52;10.43;;;;;;;;;;5126955;27;20117;-61
2022/12/19 10:56:50;;;;;;;11.00;9.93;;;;;;;;;;5130884;27;20098;-62
2022/12/19 10:59:17;;;;;;;9.65;8.68;;;;;;;;;;5147292;27;20054;-62
2022/12/19 11:01:43;;;;;;;10.65;9.65;;;;;;;;;;5132832;27;20035;-62
2022/12/19 11:04:27;;;;;;;11.25;10.25;;;;;;;;;;5136379;27;20179;-62
2022/12/19 11:07:03;;;;;;;10.15;9.25;;;;;;;;;;5134216;27;20047;-62
2022/12/19 11:09:29;;;;;;;11.20;10.05;;;;;;;;;;5127150;27;20063;-59
2022/12/19 11:12:07;;;;;;;11.73;10.52;;;;;;;;;;5126626;27;20177;-58
2022/12/19 11:14:34;;;;;;;10.20;9.20;;;;;;;;;;5124853;27;20051;-57
2022/12/19 11:17:00;;;;;;;10.73;9.60;;;;;;;;;;5137203;27;20127;-57
2022/12/19 11:19:36;;;;;;;20.65;9.98;;;;;;;;;;5133977;27;20046;-57
2022/12/19 11:22:22;;;;;;;9.88;8.82;;;;;;;;;;5136161;27;20495;-57
2022/12/19 11:24:53;;;;;;;9.00;8.20;;;;;;;;;;5129750;27;20543;-57
2022/12/19 11:27:37;;;;;;;9.20;8.27;;;;;;;;;;5132598;27;20035;-59
2022/12/19 11:30:07;;;;;;;10.20;8.43;;;;;;;;;;5136368;27;20073;-58
2022/12/19 11:32:35;;;;;;;9.68;8.20;;;;;;;;;;5128187;27;20045;-58
2022/12/19 11:35:01;;;;;;;9.63;8.30;;;;;;;;;;5132399;27;20126;-58
2022/12/19 11:37:40;;;;;;;8.35;7.45;;;;;;;;;;5130793;27;20050;-58
2022/12/19 11:40:11;;;;;;;9.80;8.75;;;;;;;;;;5132189;27;20058;-58
2022/12/19 11:42:48;;;;;;;9.00;8.10;;;;;;;;;;5128107;27;20640;-58
2022/12/19 11:45:24;;;;;;;9.07;7.85;;;;;;;;;;5125099;27;20047;-60
2022/12/19 11:47:55;;;;;;;8.63;7.72;;;;;;;;;;5126735;27;20070;-58
2022/12/19 11:50:23;;;;;;;8.85;7.93;;;;;;;;;;5131490;27;20402;-64
2022/12/19 11:52:57;;;;;;;8.98;8.10;;;;;;;;;;5125358;27;20031;-58
2022/12/19 11:55:41;;;;;;;9.05;8.13;;;;;;;;;;5124806;27;20492;-58
2022/12/19 11:58:09;;;;;;;8.60;7.80;;;;;;;;;;5139405;27;20039;-59
2022/12/19 12:00:36;;;;;;;9.65;8.35;;;;;;;;;;5136317;27;20038;-58
2022/12/19 12:03:05;;;;;;;9.00;8.07;;;;;;;;;;5136267;27;20045;-58
2022/12/19 12:05:47;;;;;;;8.77;7.88;;;;;;;;;;5135727;27;20047;-58
2022/12/19 12:08:13;;;;;;;11.90;8.33;;;;;;;;;;5133191;27;20203;-58
2022/12/19 12:10:45;;;;;;;9.32;7.63;;;;;;;;;;5125799;27;20861;-58
2022/12/19 12:13:17;;;;;;;7.25;6.50;;;;;;;;;;5125713;28;20118;-58
2022/12/19 12:15:59;;;;;;;12.32;7.38;;;;;;;;;;5128305;27;20052;-58
2022/12/19 12:18:25;;;;;;;;;;;;;;;;;;5124115;27;20054;-58
2022/12/19 12:21:07;;;;;;;8.13;6.85;;;;;;;;;;5125270;28;19919;-58
2022/12/19 12:23:36;;;;;;;8.35;6.78;;;;;;;;;;5123454;28;20145;-57
2022/12/19 12:26:08;;;;;;;10.10;8.00;;;;;;;;;;5125766;28;20103;-58
2022/12/19 12:28:34;;;;;;;;;;;;;;;;;;5126262;28;20371;-57
2022/12/19 12:31:10;;;;;;;8.55;7.15;;;;;;;;;;5125053;27;19924;-58
2022/12/19 12:33:55;;;;;;;8.98;8.18;;;;;;;;;;5129974;27;20047;-59
2022/12/19 12:36:41;;;;;;;8.40;7.43;;;;;;;;;;5132441;27;20066;-58
2022/12/19 12:39:19;;;;;;;8.55;7.68;;;;;;;;;;5087276;27;20051;-58
2022/12/19 12:42:03;;;;;;;7.97;7.15;;;;;;;;;;5135049;27;20039;-58
2022/12/19 12:44:39;;;;;;;7.80;7.10;;;;;;;;;;5127208;27;20042;-58
2022/12/19 12:47:14;;;;;;;7.03;6.43;;;;;;;;;;5130074;27;20401;-58
2022/12/19 12:50:00;;;;;;;8.70;7.18;;;;;;;;;;5129652;27;20043;-58
2022/12/19 12:52:29;;;;;;;7.75;6.97;;;;;;;;;;5131899;27;20070;-58
2022/12/19 12:54:56;;;;;;;9.98;7.75;;;;;;;;;;5128745;27;20340;-58
2022/12/19 12:57:48;;;;;;;8.88;6.60;;;;;;;;;;5134244;27;20392;-59
2022/12/19 13:00:14;;;;;;;7.68;6.88;;;;;;;;;;5130993;27;20521;-53
2022/12/19 13:02:41;;;;;;;7.07;6.32;;;;;;;;;;5140345;27;20051;-53
2022/12/19 13:05:22;;;;;;;7.68;6.70;;;;;;;;;;5132645;27;20039;-54
2022/12/19 13:07:52;;;;;;;6.53;5.93;;;;;;;;;;5136113;27;20089;-54
2022/12/19 13:10:22;;;;;;;8.30;6.88;;;;;;;;;;5142935;27;20043;-54
2022/12/19 13:12:58;;;;;;;7.88;6.95;;;;;;;;;;5135541;27;20249;-55
2022/12/19 13:15:27;;;;;;;8.10;6.72;;;;;;;;;;5132753;27;20058;-57
2022/12/19 13:17:53;;;;;;;6.75;6.15;;;;;;;;;;5121554;27;20051;-57
2022/12/19 13:20:25;;;;;;;6.40;5.80;;;;;;;;;;5146033;27;20046;-56
2022/12/19 13:22:57;;;;;;;7.72;7.03;;;;;;;;;;5145120;27;20423;-57
2022/12/19 13:25:26;;;;;;;7.13;6.47;;;;;;;;;;5147460;27;20050;-57
2022/12/19 13:27:57;;;;;;;8.23;7.43;;;;;;;;;;5148027;27;20073;-57
2022/12/19 13:30:23;;;;;;;7.20;6.53;;;;;;;;;;5145542;27;20043;-57
2022/12/19 13:32:49;;;;;;;7.75;6.95;;;;;;;;;;5143564;27;20047;-57
2022/12/19 13:35:15;;;;;;;6.93;6.28;;;;;;;;;;5132184;27;20046;-57
2022/12/19 13:38:00;;;;;;;7.13;6.35;;;;;;;;;;5134396;27;20187;-56
2022/12/19 13:40:33;;;;;;;7.47;6.18;;;;;;;;;;5128946;27;20043;-57
2022/12/19 13:46:06;;;;;;;6.93;6.22;;;;;;;;;;5138538;27;20046;-57
2022/12/19 13:48:43;;;;;;;5.85;5.22;;;;;;;;;;5135150;27;20039;-57
2022/12/19 13:51:10;;;;;;;7.72;6.40;;;;;;;;;;5141391;27;20493;-57
2022/12/19 13:53:36;;;;;;;8.43;6.38;;;;;;;;;;5131298;27;20058;-56
2022/12/19 13:56:06;;;;;;;6.57;5.97;;;;;;;;;;5134540;27;20337;-56
2022/12/19 13:58:34;;;;;;;7.68;6.35;;;;;;;;;;5142439;27;20054;-57
2022/12/19 14:01:15;;;;;;;7.03;6.10;;;;;;;;;;5141305;27;20039;-57
2022/12/19 14:03:43;;;;;;;6.40;5.82;;;;;;;;;;5144636;27;20039;-57
2022/12/19 14:06:23;;;;;;;6.03;5.53;;;;;;;;;;5146791;27;20031;-57
2022/12/19 14:08:50;;;;;;;6.30;5.70;;;;;;;;;;5145763;27;20066;-57
2022/12/19 14:11:17;;;;;;;6.50;5.90;;;;;;;;;;5142685;27;20233;-57
2022/12/19 14:16:35;;;;;;;7.45;6.40;;;;;;;;;;5136942;27;20446;-57
2022/12/19 14:19:01;;;;;;;6.50;5.90;;;;;;;;;;5146519;27;20390;-57
2022/12/19 14:21:30;;;;;;;6.80;6.30;;;;;;;;;;5146102;27;20031;-57
2022/12/19 14:24:15;;;;;;;6.50;6.00;;;;;;;;;;5141217;27;20047;-56
2022/12/19 14:26:42;;;;;;;8.63;6.63;;;;;;;;;;5145964;27;20572;-57
2022/12/19 14:29:14;;;;;;;7.90;7.20;;;;;;;;;;5146000;27;20047;-56
2022/12/19 14:31:41;;;;;;;8.32;7.53;;;;;;;;;;5145892;27;20042;-57
2022/12/19 14:34:13;;;;;;;7.32;6.72;;;;;;;;;;5146740;27;20118;-57
2022/12/19 14:36:39;;;;;;;7.30;6.63;;;;;;;;;;5144648;27;20043;-57
2022/12/19 14:39:06;;;;;;;7.57;6.78;;;;;;;;;;5145733;27;20434;-57
2022/12/19 14:44:22;;;;;;;8.73;6.90;;;;;;;;;;5133627;27;20040;-57
2022/12/19 14:47:06;;;;;;;8.30;7.22;;;;;;;;;;5133122;27;20167;-57
2022/12/19 14:49:33;;;;;;;7.15;6.05;;;;;;;;;;5140477;27;20035;-57
2022/12/19 14:52:02;;;;;;;7.97;7.18;;;;;;;;;;5144049;27;20477;-57
2022/12/19 14:54:28;;;;;;;6.63;6.03;;;;;;;;;;5139971;27;20043;-57
2022/12/19 14:57:03;;;;;;;7.35;6.65;;;;;;;;;;5133046;27;20494;-57
2022/12/19 14:59:44;;;;;;;5.93;5.50;;;;;;;;;;5127456;27;20038;-57
2022/12/19 15:02:13;;;;;;;6.60;5.75;;;;;;;;;;5126952;27;20103;-56
2022/12/19 15:04:41;;;;;;;7.15;6.00;;;;;;;;;;5128721;27;20050;-57
2022/12/19 15:07:09;;;;;;;6.18;5.57;;;;;;;;;;5136038;27;20031;-57
2022/12/19 15:09:37;;;;;;;7.00;6.30;;;;;;;;;;5135406;27;20063;-57
2022/12/19 15:15:01;;;;;;;6.72;6.13;;;;;;;;;;5132442;27;20273;-57